CheckWX is a tool to help pilots better visualize weather data.  It is not intended as a substitute for an official pre-flight weather briefing.

11:16:51 UTC

KIWA TAF
Phoenix-Mesa Gateway Airport
Phoenix, Arizona, USA
KIWA 170824Z 1708/1806 15006KT P6SM SKC FM171900 24010KT P6SM SKC FM180400 VRB06KT P6SM SKC AMD LTD TO CLD VIS AND WIND TIL 171200

Sep-17@
08:00 UTC

Sep-17 @ 08:00 UTC

Sep-17@
19:00 UTC

Sep-17 @ 19:00 UTC

KIWA 170824Z 1708/1806 15006KT P6SM SKC
Wind
  • 150° at 6 KTS
Cloud Levels
  • Clear skies

Sep-17@
19:00 UTC

Sep-17 @ 19:00 UTC

Sep-18@
04:00 UTC

Sep-18 @ 04:00 UTC

FM171900 24010KT P6SM SKC

From

From Standard forecast or significant change

Wind
  • 240° at 10 KTS
Cloud Levels
  • Clear skies

Sep-18@
04:00 UTC

Sep-18 @ 04:00 UTC

Sep-18@
06:00 UTC

Sep-18 @ 06:00 UTC

FM180400 VRB06KT P6SM SKC AMD LTD TO CLD VIS AND WIND TIL 171200

From

From Standard forecast or significant change

Wind
  • Variable at 6 KTS
Cloud Levels
  • Clear skies